createdAt,value
2023-08-07T00:02:13.350Z,15.20
2023-08-07T00:04:40.540Z,15.40
2023-08-07T00:07:07.820Z,15.30
2023-08-07T00:09:35.045Z,14.60
2023-08-07T00:12:02.285Z,15.10
2023-08-07T00:14:29.481Z,15.00
2023-08-07T00:16:56.688Z,14.90
2023-08-07T00:19:24.126Z,15.00
2023-08-07T00:21:51.430Z,15.10
2023-08-07T00:24:18.623Z,15.20
2023-08-07T00:26:45.867Z,15.30
2023-08-07T00:29:13.376Z,15.30
2023-08-07T00:31:40.695Z,15.50
2023-08-07T00:34:07.937Z,15.60
2023-08-07T00:36:36.098Z,14.50
2023-08-07T00:39:07.089Z,14.70
2023-08-07T00:41:34.305Z,15.10
2023-08-07T00:44:01.876Z,15.20
2023-08-07T00:46:31.107Z,15.40
2023-08-07T00:48:58.565Z,15.40
2023-08-07T00:51:25.848Z,15.40
2023-08-07T00:53:53.316Z,15.80
2023-08-07T00:56:20.732Z,15.60
2023-08-07T00:58:47.995Z,15.60
2023-08-07T01:01:15.716Z,15.80
2023-08-07T01:03:43.018Z,16.00
2023-08-07T01:06:10.244Z,15.90
2023-08-07T01:08:37.819Z,16.00
2023-08-07T01:11:11.144Z,16.00
2023-08-07T01:13:57.094Z,15.90
2023-08-07T01:16:41.732Z,16.10
2023-08-07T01:19:15.358Z,15.90
2023-08-07T01:21:49.044Z,16.00
2023-08-07T01:24:16.336Z,16.00
2023-08-07T01:26:47.377Z,15.70
2023-08-07T01:29:18.611Z,15.50
2023-08-07T01:31:46.764Z,15.10
2023-08-07T01:34:15.614Z,14.70
2023-08-07T01:36:43.047Z,13.90
2023-08-07T01:39:10.580Z,14.20
2023-08-07T01:41:37.972Z,14.70
2023-08-07T01:44:22.764Z,15.00
2023-08-07T01:46:56.400Z,15.00
2023-08-07T01:49:31.070Z,15.20
2023-08-07T01:52:28.748Z,15.30
2023-08-07T01:58:28.024Z,14.90
2023-08-07T02:00:55.489Z,14.90
2023-08-07T02:03:22.800Z,15.00
2023-08-07T02:06:31.078Z,14.90
2023-08-07T02:09:28.736Z,15.00
2023-08-07T02:11:55.958Z,14.80
2023-08-07T02:14:23.212Z,15.10
2023-08-07T02:16:50.446Z,14.60
2023-08-07T02:19:17.663Z,14.70
2023-08-07T02:21:44.906Z,14.20
2023-08-07T02:24:12.109Z,14.20
2023-08-07T02:26:39.318Z,14.80
2023-08-07T02:29:08.385Z,14.60
2023-08-07T02:31:35.607Z,15.00
2023-08-07T02:34:02.800Z,14.80
2023-08-07T02:36:30.012Z,14.90
2023-08-07T02:38:57.191Z,14.50
2023-08-07T02:41:24.416Z,14.90
2023-08-07T02:43:51.755Z,15.20
2023-08-07T02:46:19.052Z,15.20
2023-08-07T02:48:46.390Z,15.00
2023-08-07T02:51:13.611Z,15.10
2023-08-07T02:53:40.850Z,14.40
2023-08-07T02:56:08.195Z,14.70
2023-08-07T02:58:35.371Z,14.60
2023-08-07T03:01:09.121Z,14.10
2023-08-07T03:03:36.704Z,14.50
2023-08-07T03:06:04.314Z,14.70
2023-08-07T03:08:31.548Z,15.50
2023-08-07T03:10:59.551Z,14.90
2023-08-07T03:13:27.581Z,14.80
2023-08-07T03:16:05.593Z,15.60
2023-08-07T03:18:33.168Z,15.70
2023-08-07T03:21:00.803Z,15.60
2023-08-07T03:23:28.850Z,15.70
2023-08-07T03:28:40.692Z,15.20
2023-08-07T03:31:08.182Z,14.30
2023-08-07T03:33:35.658Z,14.70
2023-08-07T03:36:02.898Z,15.10
2023-08-07T03:38:30.142Z,15.20
2023-08-07T03:40:57.362Z,15.40
2023-08-07T03:43:24.579Z,14.90
2023-08-07T03:45:59.538Z,14.70
2023-08-07T03:48:29.829Z,15.30
2023-08-07T03:51:06.906Z,15.20
2023-08-07T03:53:34.153Z,15.00
2023-08-07T03:56:01.372Z,15.30
2023-08-07T03:58:28.584Z,15.50
2023-08-07T04:00:56.327Z,15.40
2023-08-07T04:03:23.783Z,15.20
2023-08-07T04:05:54.912Z,15.00
2023-08-07T04:08:24.163Z,14.30
2023-08-07T04:11:01.889Z,14.80
2023-08-07T04:13:29.377Z,14.20
2023-08-07T04:15:57.210Z,14.60
2023-08-07T04:18:24.707Z,14.00
2023-08-07T04:20:53.800Z,14.30
2023-08-07T04:23:21.443Z,14.30
2023-08-07T04:25:53.026Z,14.40
2023-08-07T04:28:20.505Z,14.80
2023-08-07T04:30:54.803Z,14.90
2023-08-07T04:33:22.542Z,14.50
2023-08-07T04:35:49.953Z,14.90
2023-08-07T04:38:18.153Z,14.50
2023-08-07T04:40:49.354Z,14.70
2023-08-07T04:43:16.840Z,13.90
2023-08-07T04:45:46.070Z,13.90
2023-08-07T04:48:14.130Z,13.50
2023-08-07T04:50:41.832Z,13.00
2023-08-07T04:53:09.118Z,13.30
2023-08-07T04:55:36.407Z,13.70
2023-08-07T04:58:03.645Z,14.20
2023-08-07T05:00:30.887Z,14.50
2023-08-07T05:02:58.287Z,14.10
2023-08-07T05:05:25.605Z,13.80
2023-08-07T05:07:52.868Z,14.60
2023-08-07T05:10:20.313Z,14.60
2023-08-07T05:12:48.531Z,14.00
2023-08-07T05:15:15.796Z,14.60
2023-08-07T05:17:43.665Z,13.50
2023-08-07T05:20:11.490Z,13.40
2023-08-07T05:22:38.952Z,13.20
2023-08-07T05:25:06.715Z,13.70
2023-08-07T05:27:33.930Z,13.30
2023-08-07T05:30:01.406Z,13.10
2023-08-07T05:32:29.292Z,13.30
2023-08-07T05:34:56.772Z,13.00
2023-08-07T05:37:23.992Z,13.30
2023-08-07T05:39:51.304Z,13.10
2023-08-07T05:42:18.514Z,13.10
2023-08-07T05:44:45.783Z,13.80
2023-08-07T05:47:13.079Z,13.40
2023-08-07T05:49:40.428Z,13.40
2023-08-07T05:52:08.316Z,13.50
2023-08-07T05:54:35.627Z,13.00
2023-08-07T05:57:02.830Z,13.20
2023-08-07T05:59:30.679Z,13.60
2023-08-07T06:02:00.073Z,13.30
2023-08-07T06:04:27.720Z,13.50
2023-08-07T06:06:54.929Z,13.50
2023-08-07T06:09:22.852Z,13.70
2023-08-07T06:11:50.279Z,13.90
2023-08-07T06:14:17.815Z,13.50
2023-08-07T06:16:45.231Z,13.50
2023-08-07T06:19:24.978Z,13.70
2023-08-07T06:21:57.454Z,14.10
2023-08-07T06:24:26.331Z,13.40
2023-08-07T06:26:53.641Z,13.60
2023-08-07T06:29:20.934Z,13.40
2023-08-07T06:31:48.260Z,13.80
2023-08-07T06:34:15.608Z,14.10
2023-08-07T06:36:42.879Z,13.20
2023-08-07T06:39:10.132Z,13.60
2023-08-07T06:41:38.305Z,13.40
2023-08-07T06:44:05.636Z,13.90
2023-08-07T06:46:32.843Z,13.30
2023-08-07T06:49:00.107Z,13.40
2023-08-07T06:51:27.634Z,13.20
2023-08-07T06:53:54.846Z,13.80
2023-08-07T06:56:22.211Z,13.50
2023-08-07T06:58:49.465Z,13.50
2023-08-07T07:01:16.899Z,13.40
2023-08-07T07:03:46.687Z,13.20
2023-08-07T07:06:14.266Z,13.60
2023-08-07T07:08:41.650Z,13.20
2023-08-07T07:11:09.487Z,13.40
2023-08-07T07:13:37.201Z,13.40
2023-08-07T07:16:04.558Z,13.20
2023-08-07T07:18:32.122Z,14.10
2023-08-07T07:20:59.899Z,13.30
2023-08-07T07:23:27.487Z,13.70
2023-08-07T07:25:54.732Z,13.50
2023-08-07T07:28:22.632Z,13.70
2023-08-07T07:30:53.083Z,13.70
2023-08-07T07:33:20.344Z,14.10
2023-08-07T07:35:47.614Z,13.70
2023-08-07T07:38:16.424Z,13.50
2023-08-07T07:40:43.715Z,13.70
2023-08-07T07:43:11.232Z,13.60
2023-08-07T07:45:38.520Z,14.10
2023-08-07T07:48:07.498Z,13.90
2023-08-07T07:50:34.750Z,14.10
2023-08-07T07:53:02.045Z,14.00
2023-08-07T07:55:29.274Z,13.90
2023-08-07T07:57:56.533Z,13.80
2023-08-07T08:00:27.887Z,13.70
2023-08-07T08:02:55.320Z,14.10
2023-08-07T08:05:22.825Z,14.10
2023-08-07T08:07:50.298Z,13.80
2023-08-07T08:10:17.610Z,14.10
2023-08-07T08:12:45.031Z,14.40
2023-08-07T08:15:12.433Z,14.20
2023-08-07T08:17:40.273Z,14.40
2023-08-07T08:20:08.960Z,14.40
2023-08-07T08:22:36.293Z,14.30
2023-08-07T08:25:05.510Z,14.00
2023-08-07T08:27:32.780Z,14.60
2023-08-07T08:30:00.403Z,14.60
2023-08-07T08:32:27.817Z,14.80
2023-08-07T08:34:55.085Z,14.80
2023-08-07T08:37:22.428Z,15.00
2023-08-07T08:39:50.025Z,14.80
2023-08-07T08:42:20.377Z,14.50
2023-08-07T08:44:52.700Z,14.90
2023-08-07T08:47:20.098Z,14.90
2023-08-07T08:50:02.725Z,15.50
2023-08-07T08:52:35.794Z,15.10
2023-08-07T08:55:03.150Z,15.50
2023-08-07T08:57:31.024Z,15.80
2023-08-07T09:00:03.105Z,16.40
2023-08-07T09:02:30.481Z,15.90
2023-08-07T09:04:58.454Z,16.00
2023-08-07T09:07:25.936Z,16.20
2023-08-07T09:09:53.233Z,16.40
2023-08-07T09:12:28.100Z,16.40
2023-08-07T09:14:58.233Z,17.30
2023-08-07T09:17:32.729Z,17.50
2023-08-07T09:20:00.214Z,16.30
2023-08-07T09:22:27.469Z,16.40
2023-08-07T09:24:54.674Z,16.50
2023-08-07T09:27:22.324Z,16.70
2023-08-07T09:29:50.244Z,17.10
2023-08-07T09:32:19.533Z,16.00
2023-08-07T09:34:46.730Z,16.20
2023-08-07T09:37:13.941Z,16.90
2023-08-07T09:39:42.526Z,16.30
2023-08-07T09:42:16.594Z,16.60
2023-08-07T09:44:46.093Z,16.90
2023-08-07T09:47:17.088Z,17.30
2023-08-07T09:49:45.805Z,17.00
2023-08-07T09:52:16.495Z,17.50
2023-08-07T09:54:43.763Z,17.20
2023-08-07T09:57:10.964Z,17.10
2023-08-07T09:59:38.279Z,17.00
2023-08-07T10:02:06.160Z,17.40
2023-08-07T10:04:33.411Z,17.60
2023-08-07T10:07:01.581Z,17.90
2023-08-07T10:09:29.054Z,17.60
2023-08-07T10:11:56.331Z,17.50
2023-08-07T10:14:23.825Z,17.30
2023-08-07T10:16:52.384Z,17.20
2023-08-07T10:19:19.653Z,17.80
2023-08-07T10:21:46.918Z,17.70
2023-08-07T10:24:14.911Z,17.90
2023-08-07T10:26:45.359Z,17.60
2023-08-07T10:29:15.960Z,17.80
2023-08-07T10:31:44.180Z,18.10
2023-08-07T10:34:11.506Z,18.40
2023-08-07T10:36:40.075Z,18.50
2023-08-07T10:39:09.433Z,18.10
2023-08-07T10:41:50.435Z,17.80
2023-08-07T10:44:31.991Z,17.90
2023-08-07T10:47:00.325Z,18.60
2023-08-07T10:49:38.785Z,18.90
2023-08-07T10:52:09.446Z,18.20
2023-08-07T10:54:43.961Z,17.70
2023-08-07T10:57:15.218Z,17.90
2023-08-07T10:59:52.319Z,17.60
2023-08-07T11:02:27.477Z,18.20
2023-08-07T11:04:55.202Z,18.00
2023-08-07T11:07:27.189Z,18.80
2023-08-07T11:09:55.146Z,18.50
2023-08-07T11:12:25.248Z,18.00
2023-08-07T11:14:53.880Z,18.30
2023-08-07T11:17:21.250Z,17.80
2023-08-07T11:19:49.320Z,18.10
2023-08-07T11:22:17.533Z,18.30
2023-08-07T11:24:45.947Z,18.20
2023-08-07T11:27:13.165Z,18.50
2023-08-07T11:29:40.414Z,18.50
2023-08-07T11:32:09.033Z,18.70
2023-08-07T11:34:38.234Z,18.50
2023-08-07T11:37:05.590Z,18.60
2023-08-07T11:39:32.784Z,19.60
2023-08-07T11:42:00.787Z,18.70
2023-08-07T11:44:30.136Z,18.50
2023-08-07T11:46:57.940Z,18.90
2023-08-07T11:49:25.573Z,18.90
2023-08-07T11:51:52.789Z,19.30
2023-08-07T11:54:20.327Z,18.70
2023-08-07T11:56:47.594Z,18.90
2023-08-07T11:59:19.587Z,19.30
2023-08-07T12:01:47.761Z,18.60
2023-08-07T12:04:15.049Z,19.20
2023-08-07T12:06:58.053Z,19.40
2023-08-07T12:09:27.367Z,19.00
2023-08-07T12:11:58.740Z,19.10
2023-08-07T12:14:30.453Z,18.90
2023-08-07T12:16:57.994Z,19.20
2023-08-07T12:19:25.673Z,19.40
2023-08-07T12:21:52.951Z,19.30
2023-08-07T12:24:21.235Z,19.00
2023-08-07T12:26:48.625Z,18.60
2023-08-07T12:29:15.833Z,18.10
2023-08-07T12:31:43.080Z,19.00
2023-08-07T12:36:41.935Z,18.70
2023-08-07T12:39:09.146Z,18.60
2023-08-07T12:44:06.546Z,19.00
2023-08-07T12:46:36.145Z,18.60
2023-08-07T12:49:04.713Z,19.20
2023-08-07T12:51:31.994Z,19.00
2023-08-07T12:53:59.210Z,19.10
2023-08-07T12:56:26.421Z,19.30
2023-08-07T12:58:53.606Z,19.90
2023-08-07T13:01:20.833Z,19.50
2023-08-07T13:03:48.049Z,18.90
2023-08-07T13:06:15.340Z,18.90
2023-08-07T13:08:42.561Z,19.10
2023-08-07T13:11:09.974Z,19.30
2023-08-07T13:13:39.331Z,18.60
2023-08-07T13:16:06.675Z,19.10
2023-08-07T13:18:33.880Z,19.60
2023-08-07T13:21:01.210Z,19.90
2023-08-07T13:23:28.603Z,19.70
2023-08-07T13:25:56.803Z,19.90
2023-08-07T13:28:25.055Z,20.30
2023-08-07T13:30:52.649Z,20.50
2023-08-07T13:33:21.229Z,20.80
2023-08-07T13:35:48.500Z,20.10
2023-08-07T13:38:19.503Z,19.90
2023-08-07T13:40:46.769Z,19.90
2023-08-07T13:43:14.006Z,20.00
2023-08-07T13:45:41.251Z,20.10
2023-08-07T13:48:10.500Z,20.90
2023-08-07T13:50:39.250Z,19.90
2023-08-07T13:53:14.558Z,20.40
2023-08-07T13:55:42.884Z,20.10
2023-08-07T13:58:10.957Z,20.50
2023-08-07T14:00:39.707Z,21.60
2023-08-07T14:03:07.005Z,21.70
2023-08-07T14:05:34.288Z,22.00
2023-08-07T14:08:01.659Z,21.30
2023-08-07T14:10:28.826Z,21.90
2023-08-07T14:12:56.024Z,22.10
2023-08-07T14:15:23.438Z,22.50
2023-08-07T14:17:50.726Z,22.00
2023-08-07T14:20:17.971Z,21.40
2023-08-07T14:22:45.191Z,21.40
2023-08-07T14:25:12.417Z,20.20
2023-08-07T14:27:39.655Z,21.10
2023-08-07T14:30:07.488Z,22.40
2023-08-07T14:32:34.803Z,22.70
2023-08-07T14:35:02.030Z,23.20
2023-08-07T14:37:29.513Z,22.50
2023-08-07T14:39:56.794Z,22.20
2023-08-07T14:42:25.229Z,22.30
2023-08-07T14:44:52.508Z,21.90
2023-08-07T14:47:19.720Z,21.40
2023-08-07T14:49:46.995Z,21.60
2023-08-07T14:52:14.211Z,21.70
2023-08-07T14:54:41.443Z,21.10
2023-08-07T14:57:08.670Z,21.50
2023-08-07T14:59:35.994Z,21.30
2023-08-07T15:02:03.414Z,20.90
2023-08-07T15:04:30.692Z,20.30
2023-08-07T15:06:57.933Z,20.60
2023-08-07T15:09:26.460Z,20.90
2023-08-07T15:11:53.671Z,21.30
2023-08-07T15:14:20.891Z,21.00
2023-08-07T15:16:48.145Z,21.20
2023-08-07T15:19:15.459Z,20.80
2023-08-07T15:21:43.312Z,20.80
2023-08-07T15:24:10.537Z,20.80
2023-08-07T15:26:37.882Z,20.50
2023-08-07T15:29:05.479Z,21.10
2023-08-07T15:31:33.886Z,20.90
2023-08-07T15:34:01.199Z,20.40
2023-08-07T15:36:28.508Z,20.70
2023-08-07T15:38:55.772Z,21.20
2023-08-07T15:41:23.418Z,21.00
2023-08-07T15:43:50.750Z,21.70
2023-08-07T15:46:18.626Z,22.20
2023-08-07T15:48:46.199Z,22.70
2023-08-07T15:51:13.443Z,23.00
2023-08-07T15:53:40.757Z,23.50
2023-08-07T15:56:08.530Z,22.60
2023-08-07T15:58:36.881Z,21.60
2023-08-07T16:01:04.164Z,21.90
2023-08-07T16:03:31.411Z,22.30
2023-08-07T16:05:58.603Z,22.70
2023-08-07T16:08:25.845Z,23.80
2023-08-07T16:10:53.790Z,22.90
2023-08-07T16:13:21.283Z,22.90
2023-08-07T16:15:48.580Z,22.10
2023-08-07T16:18:15.851Z,21.50
2023-08-07T16:20:43.088Z,22.00
2023-08-07T16:23:10.337Z,21.30
2023-08-07T16:25:37.632Z,21.30
2023-08-07T16:28:06.416Z,20.80
2023-08-07T16:30:33.681Z,20.80
2023-08-07T16:33:00.989Z,20.90
2023-08-07T16:35:28.707Z,21.70
2023-08-07T16:37:56.006Z,21.50
2023-08-07T16:40:23.288Z,21.80
2023-08-07T16:42:50.902Z,21.00
2023-08-07T16:45:18.149Z,20.80
2023-08-07T16:47:45.349Z,20.70
2023-08-07T16:50:24.272Z,20.40
2023-08-07T16:52:56.988Z,20.10
2023-08-07T16:55:28.926Z,20.30
2023-08-07T16:58:02.758Z,20.80
2023-08-07T17:00:34.198Z,21.10
2023-08-07T17:03:10.475Z,21.50
2023-08-07T17:05:38.623Z,21.10
2023-08-07T17:08:08.590Z,20.90
2023-08-07T17:10:35.864Z,21.00
2023-08-07T17:13:09.493Z,21.30
2023-08-07T17:15:38.804Z,21.40
2023-08-07T17:24:29.968Z,21.30
2023-08-07T17:27:05.940Z,21.00
2023-08-07T17:30:02.645Z,20.40
2023-08-07T17:32:38.590Z,21.20
2023-08-07T17:35:13.193Z,20.80
2023-08-07T17:37:47.388Z,20.90
2023-08-07T17:40:22.725Z,20.70
2023-08-07T17:42:55.711Z,20.80
2023-08-07T17:46:00.140Z,20.70
2023-08-07T17:48:50.438Z,20.60
2023-08-07T17:51:17.663Z,20.80
2023-08-07T17:53:44.873Z,20.50
2023-08-07T17:56:12.125Z,20.30
2023-08-07T17:58:39.434Z,20.30
2023-08-07T18:01:06.744Z,20.30
2023-08-07T18:03:34.004Z,20.60
2023-08-07T18:06:01.300Z,20.40
2023-08-07T18:08:28.544Z,20.50
2023-08-07T18:10:55.738Z,20.60
2023-08-07T18:13:23.019Z,20.60
2023-08-07T18:15:50.251Z,20.30
2023-08-07T18:18:17.486Z,20.10
2023-08-07T18:20:44.749Z,20.40
2023-08-07T18:23:11.941Z,20.30
2023-08-07T18:25:39.209Z,19.90
2023-08-07T18:28:06.841Z,19.50
2023-08-07T18:30:34.112Z,20.20
2023-08-07T18:33:01.420Z,20.20
2023-08-07T18:35:28.651Z,20.30
2023-08-07T18:37:55.877Z,20.30
2023-08-07T18:40:23.147Z,20.40
2023-08-07T18:42:50.391Z,20.30
2023-08-07T18:45:17.746Z,20.40
2023-08-07T18:47:45.043Z,20.40
2023-08-07T18:50:12.324Z,19.90
2023-08-07T18:52:39.556Z,19.80
2023-08-07T18:55:07.035Z,20.00
2023-08-07T18:57:34.240Z,20.00
2023-08-07T19:00:01.499Z,20.00
2023-08-07T19:02:28.735Z,20.00
2023-08-07T19:04:56.007Z,19.90
2023-08-07T19:07:23.246Z,19.90
2023-08-07T19:09:50.473Z,19.80
2023-08-07T19:12:17.706Z,19.70
2023-08-07T19:14:44.964Z,19.90
2023-08-07T19:17:12.176Z,20.00
2023-08-07T19:19:39.443Z,19.80
2023-08-07T19:22:06.658Z,19.80
2023-08-07T19:24:33.925Z,19.60
2023-08-07T19:27:01.440Z,19.50
2023-08-07T19:29:28.966Z,19.30
2023-08-07T19:31:56.339Z,19.00
2023-08-07T19:34:24.126Z,19.50
2023-08-07T19:36:51.590Z,19.60
2023-08-07T19:39:19.098Z,19.70
2023-08-07T19:41:46.575Z,19.80
2023-08-07T19:44:13.769Z,19.80
2023-08-07T19:46:41.021Z,19.70
2023-08-07T19:49:08.664Z,19.60
2023-08-07T19:51:35.935Z,19.50
2023-08-07T19:54:03.239Z,19.50
2023-08-07T19:56:33.331Z,19.30
2023-08-07T19:59:04.757Z,19.30
2023-08-07T20:01:32.902Z,19.00
2023-08-07T20:04:00.492Z,18.60
2023-08-07T20:06:28.278Z,18.60
2023-08-07T20:08:55.858Z,18.60
2023-08-07T20:11:23.081Z,18.80
2023-08-07T20:13:50.313Z,18.70
2023-08-07T20:16:17.564Z,18.70
2023-08-07T20:18:44.857Z,18.70
2023-08-07T20:21:14.386Z,18.30
2023-08-07T20:23:43.732Z,18.20
2023-08-07T20:26:10.948Z,18.20
2023-08-07T20:28:38.169Z,18.20
2023-08-07T20:31:05.429Z,18.50
2023-08-07T20:33:32.681Z,18.40
2023-08-07T20:36:00.316Z,18.20
2023-08-07T20:38:27.551Z,18.40
2023-08-07T20:40:54.775Z,18.60
2023-08-07T20:43:21.997Z,18.60
2023-08-07T20:45:49.237Z,18.90
2023-08-07T20:48:16.702Z,19.00
2023-08-07T20:50:43.881Z,19.10
2023-08-07T20:53:11.105Z,18.00
2023-08-07T20:55:38.311Z,18.10
2023-08-07T20:58:05.822Z,17.70
2023-08-07T21:00:33.099Z,17.80
2023-08-07T21:03:00.430Z,18.20
2023-08-07T21:05:27.700Z,18.40
2023-08-07T21:07:54.934Z,18.50
2023-08-07T21:10:22.154Z,18.90
2023-08-07T21:12:49.426Z,18.70
2023-08-07T21:15:16.800Z,18.90
2023-08-07T21:17:44.090Z,19.00
2023-08-07T21:20:11.792Z,18.80
2023-08-07T21:22:39.401Z,18.60
2023-08-07T21:25:07.351Z,18.70
2023-08-07T21:27:35.021Z,18.30
2023-08-07T21:30:02.778Z,18.60
2023-08-07T21:32:30.060Z,18.20
2023-08-07T21:34:57.424Z,18.30
2023-08-07T21:37:31.547Z,18.80
2023-08-07T21:39:59.042Z,18.90
2023-08-07T21:42:26.265Z,18.90
2023-08-07T21:44:54.754Z,18.60
2023-08-07T21:47:21.985Z,18.80
2023-08-07T21:49:49.249Z,18.70
2023-08-07T21:52:16.548Z,18.80
2023-08-07T21:54:43.822Z,18.90
2023-08-07T21:57:11.025Z,18.90
2023-08-07T21:59:38.232Z,18.70
2023-08-07T22:02:05.724Z,18.60
2023-08-07T22:04:33.424Z,18.70
2023-08-07T22:07:00.862Z,18.70
2023-08-07T22:09:28.150Z,18.70
2023-08-07T22:11:55.777Z,18.50
2023-08-07T22:14:23.245Z,18.80
2023-08-07T22:16:51.082Z,18.20
2023-08-07T22:19:18.494Z,18.60
2023-08-07T22:21:45.744Z,18.00
2023-08-07T22:24:12.977Z,18.20
2023-08-07T22:26:40.189Z,18.00
2023-08-07T22:29:07.423Z,18.10
2023-08-07T22:31:34.634Z,18.10
2023-08-07T22:34:01.921Z,18.30
2023-08-07T22:36:29.153Z,18.20
2023-08-07T22:38:56.731Z,18.00
2023-08-07T22:41:23.937Z,17.90
2023-08-07T22:43:51.255Z,17.90
2023-08-07T22:46:18.557Z,18.20
2023-08-07T22:48:45.787Z,18.40
2023-08-07T22:51:13.038Z,18.60
2023-08-07T22:53:40.238Z,18.50
2023-08-07T22:56:07.481Z,18.40
2023-08-07T22:58:34.682Z,18.40
2023-08-07T23:01:02.453Z,18.30
2023-08-07T23:03:29.715Z,18.30
2023-08-07T23:05:56.976Z,18.40
2023-08-07T23:08:24.268Z,18.40
2023-08-07T23:10:53.102Z,18.50
2023-08-07T23:13:20.389Z,18.50
2023-08-07T23:15:48.231Z,18.50
2023-08-07T23:18:15.683Z,18.40
2023-08-07T23:20:42.969Z,18.50
2023-08-07T23:23:10.708Z,18.50
2023-08-07T23:25:37.904Z,18.30
2023-08-07T23:28:05.436Z,18.50
2023-08-07T23:30:33.197Z,18.60
2023-08-07T23:33:01.516Z,18.30
2023-08-07T23:35:29.022Z,18.50
2023-08-07T23:37:56.222Z,18.10
2023-08-07T23:40:23.802Z,18.40
2023-08-07T23:42:50.989Z,18.40
2023-08-07T23:45:18.289Z,18.30
2023-08-07T23:47:45.560Z,18.40
2023-08-07T23:50:12.991Z,18.20
2023-08-07T23:52:40.248Z,18.20
2023-08-07T23:55:07.941Z,18.40
2023-08-07T23:57:35.185Z,18.40
